sensor_id;sensor_type;location;lat;lon;timestamp;temperature;humidity
65584;DHT22;62116;43.582;1.470;2022-09-09T00:02:26;22.94;63.42
65584;DHT22;62116;43.582;1.470;2022-09-09T00:05:17;22.97;63.04
65584;DHT22;62116;43.582;1.470;2022-09-09T00:07:49;22.97;62.19
65584;DHT22;62116;43.582;1.470;2022-09-09T00:10:37;22.99;62.04
65584;DHT22;62116;43.582;1.470;2022-09-09T00:15:55;22.97;61.38
65584;DHT22;62116;43.582;1.470;2022-09-09T00:20:55;22.98;61.15
65584;DHT22;62116;43.582;1.470;2022-09-09T00:23:38;22.99;61.63
65584;DHT22;62116;43.582;1.470;2022-09-09T00:28:31;22.98;60.98
65584;DHT22;62116;43.582;1.470;2022-09-09T00:31:11;22.95;61.18
65584;DHT22;62116;43.582;1.470;2022-09-09T00:33:37;22.97;61.69
65584;DHT22;62116;43.582;1.470;2022-09-09T00:36:12;22.94;61.84
65584;DHT22;62116;43.582;1.470;2022-09-09T00:38:43;22.95;61.67
65584;DHT22;62116;43.582;1.470;2022-09-09T00:41:24;22.95;61.56
65584;DHT22;62116;43.582;1.470;2022-09-09T00:54:44;22.98;60.92
65584;DHT22;62116;43.582;1.470;2022-09-09T00:57:32;22.91;60.91
65584;DHT22;62116;43.582;1.470;2022-09-09T01:00:16;22.92;61.26
65584;DHT22;62116;43.582;1.470;2022-09-09T01:05:54;22.98;61.76
65584;DHT22;62116;43.582;1.470;2022-09-09T01:11:23;22.98;61.12
65584;DHT22;62116;43.582;1.470;2022-09-09T01:13:58;22.99;61.82
65584;DHT22;62116;43.582;1.470;2022-09-09T01:16:28;22.99;61.70
65584;DHT22;62116;43.582;1.470;2022-09-09T01:18:55;23.02;61.27
65584;DHT22;62116;43.582;1.470;2022-09-09T01:21:33;23.02;61.11
65584;DHT22;62116;43.582;1.470;2022-09-09T01:26:56;22.99;60.88
65584;DHT22;62116;43.582;1.470;2022-09-09T01:29:24;22.97;61.46
65584;DHT22;62116;43.582;1.470;2022-09-09T01:35:15;22.97;62.19
65584;DHT22;62116;43.582;1.470;2022-09-09T01:37:43;22.98;62.48
65584;DHT22;62116;43.582;1.470;2022-09-09T01:40:09;23.01;62.56
65584;DHT22;62116;43.582;1.470;2022-09-09T01:42:34;23.02;62.42
65584;DHT22;62116;43.582;1.470;2022-09-09T01:44:59;22.99;62.74
65584;DHT22;62116;43.582;1.470;2022-09-09T01:47:25;22.99;62.58
65584;DHT22;62116;43.582;1.470;2022-09-09T01:49:50;22.95;61.90
65584;DHT22;62116;43.582;1.470;2022-09-09T01:52:17;22.97;61.76
65584;DHT22;62116;43.582;1.470;2022-09-09T01:54:43;22.98;61.41
65584;DHT22;62116;43.582;1.470;2022-09-09T01:57:28;22.97;60.99
65584;DHT22;62116;43.582;1.470;2022-09-09T02:00:14;22.92;60.65
65584;DHT22;62116;43.582;1.470;2022-09-09T02:03:17;22.92;61.09
65584;DHT22;62116;43.582;1.470;2022-09-09T02:06:10;22.90;60.70
65584;DHT22;62116;43.582;1.470;2022-09-09T02:08:47;22.87;60.67
65584;DHT22;62116;43.582;1.470;2022-09-09T02:11:19;22.85;60.90
65584;DHT22;62116;43.582;1.470;2022-09-09T02:13:46;22.79;60.89
65584;DHT22;62116;43.582;1.470;2022-09-09T02:16:26;22.79;60.60
65584;DHT22;62116;43.582;1.470;2022-09-09T02:19:20;22.74;60.21
65584;DHT22;62116;43.582;1.470;2022-09-09T02:21:52;22.72;60.53
65584;DHT22;62116;43.582;1.470;2022-09-09T02:24:18;22.69;60.54
65584;DHT22;62116;43.582;1.470;2022-09-09T02:26:47;22.67;60.52
65584;DHT22;62116;43.582;1.470;2022-09-09T02:29:26;22.64;60.95
65584;DHT22;62116;43.582;1.470;2022-09-09T02:31:57;22.64;60.67
65584;DHT22;62116;43.582;1.470;2022-09-09T02:34:23;22.63;60.90
65584;DHT22;62116;43.582;1.470;2022-09-09T02:36:50;22.64;60.53
65584;DHT22;62116;43.582;1.470;2022-09-09T02:39:17;22.58;60.44
65584;DHT22;62116;43.582;1.470;2022-09-09T02:41:43;22.57;60.34
65584;DHT22;62116;43.582;1.470;2022-09-09T02:44:13;22.58;60.26
65584;DHT22;62116;43.582;1.470;2022-09-09T02:50:04;22.48;60.33
65584;DHT22;62116;43.582;1.470;2022-09-09T02:52:36;22.43;60.33
65584;DHT22;62116;43.582;1.470;2022-09-09T02:55:12;22.45;60.21
65584;DHT22;62116;43.582;1.470;2022-09-09T02:57:43;22.41;60.42
65584;DHT22;62116;43.582;1.470;2022-09-09T03:00:12;22.41;60.60
65584;DHT22;62116;43.582;1.470;2022-09-09T03:02:38;22.39;60.67
65584;DHT22;62116;43.582;1.470;2022-09-09T03:05:04;22.36;60.90
65584;DHT22;62116;43.582;1.470;2022-09-09T03:07:30;22.36;61.00
65584;DHT22;62116;43.582;1.470;2022-09-09T03:09:56;22.36;61.11
65584;DHT22;62116;43.582;1.470;2022-09-09T03:12:21;22.34;60.77
65584;DHT22;62116;43.582;1.470;2022-09-09T03:14:46;22.37;60.77
65584;DHT22;62116;43.582;1.470;2022-09-09T03:17:12;22.34;60.87
65584;DHT22;62116;43.582;1.470;2022-09-09T03:19:37;22.36;60.87
65584;DHT22;62116;43.582;1.470;2022-09-09T03:22:03;22.32;60.96
65584;DHT22;62116;43.582;1.470;2022-09-09T03:24:29;22.30;60.86
65584;DHT22;62116;43.582;1.470;2022-09-09T03:26:55;22.33;60.98
65584;DHT22;62116;43.582;1.470;2022-09-09T03:29:21;22.27;60.92
65584;DHT22;62116;43.582;1.470;2022-09-09T03:31:46;22.27;60.98
65584;DHT22;62116;43.582;1.470;2022-09-09T03:34:12;22.30;60.81
65584;DHT22;62116;43.582;1.470;2022-09-09T03:36:39;22.30;60.64
65584;DHT22;62116;43.582;1.470;2022-09-09T03:39:06;22.21;60.67
65584;DHT22;62116;43.582;1.470;2022-09-09T03:41:31;22.27;60.39
65584;DHT22;62116;43.582;1.470;2022-09-09T03:43:56;22.24;60.33
65584;DHT22;62116;43.582;1.470;2022-09-09T03:46:24;22.23;60.52
65584;DHT22;62116;43.582;1.470;2022-09-09T03:48:49;22.23;60.71
65584;DHT22;62116;43.582;1.470;2022-09-09T03:51:16;22.23;60.83
65584;DHT22;62116;43.582;1.470;2022-09-09T03:53:42;22.20;60.75
65584;DHT22;62116;43.582;1.470;2022-09-09T03:56:08;22.17;60.66
65584;DHT22;62116;43.582;1.470;2022-09-09T03:58:35;22.09;60.87
65584;DHT22;62116;43.582;1.470;2022-09-09T04:01:06;22.02;61.19
65584;DHT22;62116;43.582;1.470;2022-09-09T04:03:33;22.03;61.03
65584;DHT22;62116;43.582;1.470;2022-09-09T04:06:01;22.03;61.14
65584;DHT22;62116;43.582;1.470;2022-09-09T04:08:27;22.07;61.31
65584;DHT22;62116;43.582;1.470;2022-09-09T04:10:54;22.07;61.39
65584;DHT22;62116;43.582;1.470;2022-09-09T04:13:22;22.06;61.51
65584;DHT22;62116;43.582;1.470;2022-09-09T04:15:55;22.07;61.04
65584;DHT22;62116;43.582;1.470;2022-09-09T04:18:21;22.07;61.16
65584;DHT22;62116;43.582;1.470;2022-09-09T04:20:47;22.09;61.39
65584;DHT22;62116;43.582;1.470;2022-09-09T04:23:13;22.09;61.13
65584;DHT22;62116;43.582;1.470;2022-09-09T04:25:44;22.07;61.18
65584;DHT22;62116;43.582;1.470;2022-09-09T04:28:10;22.10;61.04
65584;DHT22;62116;43.582;1.470;2022-09-09T04:30:35;22.04;60.83
65584;DHT22;62116;43.582;1.470;2022-09-09T04:33:01;22.03;60.79
65584;DHT22;62116;43.582;1.470;2022-09-09T04:35:26;21.99;61.21
65584;DHT22;62116;43.582;1.470;2022-09-09T04:37:52;21.99;60.97
65584;DHT22;62116;43.582;1.470;2022-09-09T04:40:17;21.97;60.94
65584;DHT22;62116;43.582;1.470;2022-09-09T04:42:43;21.94;61.01
65584;DHT22;62116;43.582;1.470;2022-09-09T04:45:09;21.93;61.20
65584;DHT22;62116;43.582;1.470;2022-09-09T04:47:36;21.93;61.37
65584;DHT22;62116;43.582;1.470;2022-09-09T04:50:02;21.92;61.42
65584;DHT22;62116;43.582;1.470;2022-09-09T04:52:28;21.88;61.47
65584;DHT22;62116;43.582;1.470;2022-09-09T04:54:53;21.86;61.57
65584;DHT22;62116;43.582;1.470;2022-09-09T04:57:19;21.88;61.22
65584;DHT22;62116;43.582;1.470;2022-09-09T04:59:44;21.88;61.90
65584;DHT22;62116;43.582;1.470;2022-09-09T05:02:11;21.85;61.96
65584;DHT22;62116;43.582;1.470;2022-09-09T05:04:36;21.66;62.36
65584;DHT22;62116;43.582;1.470;2022-09-09T05:07:02;21.60;62.57
65584;DHT22;62116;43.582;1.470;2022-09-09T05:09:27;21.56;62.60
65584;DHT22;62116;43.582;1.470;2022-09-09T05:11:52;21.55;62.54
65584;DHT22;62116;43.582;1.470;2022-09-09T05:14:18;21.52;62.68
65584;DHT22;62116;43.582;1.470;2022-09-09T05:16:46;21.52;62.75
65584;DHT22;62116;43.582;1.470;2022-09-09T05:19:12;21.50;62.91
65584;DHT22;62116;43.582;1.470;2022-09-09T05:21:37;21.55;62.78
65584;DHT22;62116;43.582;1.470;2022-09-09T05:24:03;21.58;62.84
65584;DHT22;62116;43.582;1.470;2022-09-09T05:26:28;21.59;63.53
65584;DHT22;62116;43.582;1.470;2022-09-09T05:28:57;21.62;63.61
65584;DHT22;62116;43.582;1.470;2022-09-09T05:31:24;21.59;64.90
65584;DHT22;62116;43.582;1.470;2022-09-09T05:33:52;21.60;65.72
65584;DHT22;62116;43.582;1.470;2022-09-09T05:36:21;21.65;65.68
65584;DHT22;62116;43.582;1.470;2022-09-09T05:38:47;21.65;66.06
65584;DHT22;62116;43.582;1.470;2022-09-09T05:41:13;21.69;66.95
65584;DHT22;62116;43.582;1.470;2022-09-09T05:43:43;21.70;67.50
65584;DHT22;62116;43.582;1.470;2022-09-09T05:46:16;21.69;66.83
65584;DHT22;62116;43.582;1.470;2022-09-09T05:48:43;21.67;68.85
65584;DHT22;62116;43.582;1.470;2022-09-09T05:51:13;21.65;68.43
65584;DHT22;62116;43.582;1.470;2022-09-09T05:53:41;21.60;68.04
65584;DHT22;62116;43.582;1.470;2022-09-09T05:56:08;21.56;69.35
65584;DHT22;62116;43.582;1.470;2022-09-09T05:58:36;21.55;68.96
65584;DHT22;62116;43.582;1.470;2022-09-09T06:01:07;21.53;70.01
65584;DHT22;62116;43.582;1.470;2022-09-09T06:03:35;21.53;70.10
65584;DHT22;62116;43.582;1.470;2022-09-09T06:06:03;21.52;69.44
65584;DHT22;62116;43.582;1.470;2022-09-09T06:08:37;21.41;70.12
65584;DHT22;62116;43.582;1.470;2022-09-09T06:11:12;21.41;71.01
65584;DHT22;62116;43.582;1.470;2022-09-09T06:13:38;21.38;70.11
65584;DHT22;62116;43.582;1.470;2022-09-09T06:16:17;21.31;69.68
65584;DHT22;62116;43.582;1.470;2022-09-09T06:18:42;21.32;69.43
65584;DHT22;62116;43.582;1.470;2022-09-09T06:23:41;21.29;70.46
65584;DHT22;62116;43.582;1.470;2022-09-09T06:26:09;21.34;71.43
65584;DHT22;62116;43.582;1.470;2022-09-09T06:28:35;21.31;70.60
65584;DHT22;62116;43.582;1.470;2022-09-09T06:31:06;21.32;70.51
65584;DHT22;62116;43.582;1.470;2022-09-09T06:33:34;21.31;70.28
65584;DHT22;62116;43.582;1.470;2022-09-09T06:36:01;21.35;70.53
65584;DHT22;62116;43.582;1.470;2022-09-09T06:38:27;21.38;70.61
65584;DHT22;62116;43.582;1.470;2022-09-09T06:40:53;21.42;70.79
65584;DHT22;62116;43.582;1.470;2022-09-09T06:43:23;21.39;70.64
65584;DHT22;62116;43.582;1.470;2022-09-09T06:46:10;21.36;71.13
65584;DHT22;62116;43.582;1.470;2022-09-09T06:48:36;21.36;71.20
65584;DHT22;62116;43.582;1.470;2022-09-09T06:51:07;21.41;71.17
65584;DHT22;62116;43.582;1.470;2022-09-09T06:53:34;21.41;70.90
65584;DHT22;62116;43.582;1.470;2022-09-09T06:56:46;21.34;71.33
65584;DHT22;62116;43.582;1.470;2022-09-09T06:58:48;21.43;70.61
65584;DHT22;62116;43.582;1.470;2022-09-09T07:01:16;21.39;70.91
65584;DHT22;62116;43.582;1.470;2022-09-09T07:03:44;21.31;71.11
65584;DHT22;62116;43.582;1.470;2022-09-09T07:06:19;21.34;70.83
65584;DHT22;62116;43.582;1.470;2022-09-09T07:08:55;21.34;70.61
65584;DHT22;62116;43.582;1.470;2022-09-09T07:11:22;21.35;70.09
65584;DHT22;62116;43.582;1.470;2022-09-09T07:13:48;21.32;70.40
65584;DHT22;62116;43.582;1.470;2022-09-09T07:16:16;21.28;71.30
65584;DHT22;62116;43.582;1.470;2022-09-09T07:18:42;21.38;70.95
65584;DHT22;62116;43.582;1.470;2022-09-09T07:21:10;21.38;70.31
65584;DHT22;62116;43.582;1.470;2022-09-09T07:23:37;21.36;70.17
65584;DHT22;62116;43.582;1.470;2022-09-09T07:26:11;21.32;70.41
65584;DHT22;62116;43.582;1.470;2022-09-09T07:28:38;21.32;70.21
65584;DHT22;62116;43.582;1.470;2022-09-09T07:31:04;21.31;70.99
65584;DHT22;62116;43.582;1.470;2022-09-09T07:33:31;21.35;71.63
65584;DHT22;62116;43.582;1.470;2022-09-09T07:36:17;21.35;71.51
65584;DHT22;62116;43.582;1.470;2022-09-09T07:38:48;21.36;71.30
65584;DHT22;62116;43.582;1.470;2022-09-09T07:41:20;21.39;71.77
65584;DHT22;62116;43.582;1.470;2022-09-09T07:43:48;21.43;71.01
65584;DHT22;62116;43.582;1.470;2022-09-09T07:46:15;21.43;70.37
65584;DHT22;62116;43.582;1.470;2022-09-09T07:48:49;21.42;71.13
65584;DHT22;62116;43.582;1.470;2022-09-09T07:51:23;21.38;70.42
65584;DHT22;62116;43.582;1.470;2022-09-09T07:53:53;21.36;70.66
65584;DHT22;62116;43.582;1.470;2022-09-09T07:56:19;21.36;70.81
65584;DHT22;62116;43.582;1.470;2022-09-09T07:58:48;21.39;70.89
65584;DHT22;62116;43.582;1.470;2022-09-09T08:01:17;21.42;71.47
65584;DHT22;62116;43.582;1.470;2022-09-09T08:03:47;21.42;70.99
65584;DHT22;62116;43.582;1.470;2022-09-09T08:06:13;21.36;71.10
65584;DHT22;62116;43.582;1.470;2022-09-09T08:08:39;21.42;71.25
65584;DHT22;62116;43.582;1.470;2022-09-09T08:11:14;21.39;70.48
65584;DHT22;62116;43.582;1.470;2022-09-09T08:13:42;21.39;70.17
65584;DHT22;62116;43.582;1.470;2022-09-09T08:16:16;21.39;70.20
65584;DHT22;62116;43.582;1.470;2022-09-09T08:18:42;21.39;70.38
65584;DHT22;62116;43.582;1.470;2022-09-09T08:21:14;21.38;70.39
65584;DHT22;62116;43.582;1.470;2022-09-09T08:23:41;21.41;70.46
65584;DHT22;62116;43.582;1.470;2022-09-09T08:28:38;21.39;71.69
65584;DHT22;62116;43.582;1.470;2022-09-09T08:31:15;21.36;71.47
65584;DHT22;62116;43.582;1.470;2022-09-09T08:33:42;21.39;71.40
65584;DHT22;62116;43.582;1.470;2022-09-09T08:36:12;21.39;71.72
65584;DHT22;62116;43.582;1.470;2022-09-09T08:38:38;21.41;72.10
65584;DHT22;62116;43.582;1.470;2022-09-09T08:47:20;21.49;73.96
65584;DHT22;62116;43.582;1.470;2022-09-09T08:50:02;21.48;74.34
65584;DHT22;62116;43.582;1.470;2022-09-09T08:52:37;21.50;73.95
65584;DHT22;62116;43.582;1.470;2022-09-09T08:58:15;21.55;74.03
65584;DHT22;62116;43.582;1.470;2022-09-09T09:06:38;21.45;75.02
65584;DHT22;62116;43.582;1.470;2022-09-09T09:09:18;21.39;75.41
65584;DHT22;62116;43.582;1.470;2022-09-09T09:11:56;21.35;74.48
65584;DHT22;62116;43.582;1.470;2022-09-09T09:14:30;21.26;74.92
65584;DHT22;62116;43.582;1.470;2022-09-09T09:17:05;21.16;74.14
65584;DHT22;62116;43.582;1.470;2022-09-09T09:19:35;21.18;73.47
65584;DHT22;62116;43.582;1.470;2022-09-09T09:23:06;20.96;73.26
65584;DHT22;62116;43.582;1.470;2022-09-09T09:25:23;20.85;72.31
65584;DHT22;62116;43.582;1.470;2022-09-09T09:30:44;20.65;72.81
65584;DHT22;62116;43.582;1.470;2022-09-09T09:34:07;20.57;72.36
65584;DHT22;62116;43.582;1.470;2022-09-09T09:36:09;20.50;72.98
65584;DHT22;62116;43.582;1.470;2022-09-09T09:38:36;20.45;72.93
65584;DHT22;62116;43.582;1.470;2022-09-09T09:41:02;20.50;72.47
65584;DHT22;62116;43.582;1.470;2022-09-09T09:43:36;20.39;72.63
65584;DHT22;62116;43.582;1.470;2022-09-09T09:46:05;20.21;73.54
65584;DHT22;62116;43.582;1.470;2022-09-09T09:48:30;20.26;73.80
65584;DHT22;62116;43.582;1.470;2022-09-09T09:51:01;20.26;73.83
65584;DHT22;62116;43.582;1.470;2022-09-09T09:53:29;20.34;73.67
65584;DHT22;62116;43.582;1.470;2022-09-09T09:56:01;20.37;73.84
65584;DHT22;62116;43.582;1.470;2022-09-09T09:58:31;20.44;73.51
65584;DHT22;62116;43.582;1.470;2022-09-09T10:00:59;20.45;73.04
65584;DHT22;62116;43.582;1.470;2022-09-09T10:03:28;20.47;73.58
65584;DHT22;62116;43.582;1.470;2022-09-09T10:05:55;20.53;73.68
65584;DHT22;62116;43.582;1.470;2022-09-09T10:08:25;20.55;73.35
65584;DHT22;62116;43.582;1.470;2022-09-09T10:16:55;20.54;72.74
65584;DHT22;62116;43.582;1.470;2022-09-09T10:19:37;20.57;72.32
65584;DHT22;62116;43.582;1.470;2022-09-09T10:35:29;20.43;73.79
65584;DHT22;62116;43.582;1.470;2022-09-09T10:40:32;20.29;74.69
65584;DHT22;62116;43.582;1.470;2022-09-09T10:45:57;20.37;74.50
65584;DHT22;62116;43.582;1.470;2022-09-09T10:51:11;20.47;73.22
65584;DHT22;62116;43.582;1.470;2022-09-09T10:54:15;20.54;72.08
65584;DHT22;62116;43.582;1.470;2022-09-09T10:56:49;20.60;71.16
65584;DHT22;62116;43.582;1.470;2022-09-09T10:59:22;20.63;71.74
65584;DHT22;62116;43.582;1.470;2022-09-09T11:01:53;20.64;72.20
65584;DHT22;62116;43.582;1.470;2022-09-09T11:04:28;20.64;71.55
65584;DHT22;62116;43.582;1.470;2022-09-09T11:07:02;20.68;71.38
65584;DHT22;62116;43.582;1.470;2022-09-09T11:09:33;20.71;70.79
65584;DHT22;62116;43.582;1.470;2022-09-09T11:12:02;20.73;71.53
65584;DHT22;62116;43.582;1.470;2022-09-09T11:17:42;20.83;70.11
65584;DHT22;62116;43.582;1.470;2022-09-09T11:20:13;20.85;70.08
65584;DHT22;62116;43.582;1.470;2022-09-09T11:22:51;20.90;70.33
65584;DHT22;62116;43.582;1.470;2022-09-09T11:25:48;20.88;70.71
65584;DHT22;62116;43.582;1.470;2022-09-09T11:41:44;20.98;69.37
65584;DHT22;62116;43.582;1.470;2022-09-09T11:44:17;21.06;70.00
65584;DHT22;62116;43.582;1.470;2022-09-09T11:46:46;21.06;68.57
65584;DHT22;62116;43.582;1.470;2022-09-09T11:49:40;21.12;68.36
65584;DHT22;62116;43.582;1.470;2022-09-09T11:52:41;21.09;69.16
65584;DHT22;62116;43.582;1.470;2022-09-09T11:55:25;21.12;68.93
65584;DHT22;62116;43.582;1.470;2022-09-09T12:00:47;21.24;68.00
65584;DHT22;62116;43.582;1.470;2022-09-09T12:03:48;21.25;70.00
65584;DHT22;62116;43.582;1.470;2022-09-09T12:08:42;21.29;69.29
65584;DHT22;62116;43.582;1.470;2022-09-09T12:11:08;21.32;69.02
65584;DHT22;62116;43.582;1.470;2022-09-09T12:13:34;21.34;68.78
65584;DHT22;62116;43.582;1.470;2022-09-09T12:16:00;21.36;69.07
65584;DHT22;62116;43.582;1.470;2022-09-09T12:18:39;21.34;68.05
65584;DHT22;62116;43.582;1.470;2022-09-09T12:21:50;21.35;68.54
65584;DHT22;62116;43.582;1.470;2022-09-09T12:24:27;21.38;70.15
65584;DHT22;62116;43.582;1.470;2022-09-09T12:32:23;21.45;68.04
65584;DHT22;62116;43.582;1.470;2022-09-09T12:34:55;21.52;67.31
65584;DHT22;62116;43.582;1.470;2022-09-09T12:37:36;21.60;67.49
65584;DHT22;62116;43.582;1.470;2022-09-09T12:40:05;21.66;68.64
65584;DHT22;62116;43.582;1.470;2022-09-09T12:42:31;21.70;69.79
65584;DHT22;62116;43.582;1.470;2022-09-09T12:45:02;21.76;69.25
65584;DHT22;62116;43.582;1.470;2022-09-09T12:47:38;21.78;67.59
65584;DHT22;62116;43.582;1.470;2022-09-09T12:50:36;21.82;67.49
65584;DHT22;62116;43.582;1.470;2022-09-09T12:53:47;21.82;67.40
65584;DHT22;62116;43.582;1.470;2022-09-09T12:55:58;21.86;68.67
65584;DHT22;62116;43.582;1.470;2022-09-09T12:58:25;21.85;68.23
65584;DHT22;62116;43.582;1.470;2022-09-09T13:00:53;21.89;68.63
65584;DHT22;62116;43.582;1.470;2022-09-09T13:03:21;21.89;68.60
65584;DHT22;62116;43.582;1.470;2022-09-09T13:05:47;21.88;68.12
65584;DHT22;62116;43.582;1.470;2022-09-09T13:08:14;21.88;68.17
65584;DHT22;62116;43.582;1.470;2022-09-09T13:11:06;21.85;67.25
65584;DHT22;62116;43.582;1.470;2022-09-09T13:13:37;21.92;67.79
65584;DHT22;62116;43.582;1.470;2022-09-09T13:16:05;21.99;67.05
65584;DHT22;62116;43.582;1.470;2022-09-09T13:18:34;21.99;67.08
65584;DHT22;62116;43.582;1.470;2022-09-09T13:21:01;21.93;67.90
65584;DHT22;62116;43.582;1.470;2022-09-09T13:23:29;21.94;68.44
65584;DHT22;62116;43.582;1.470;2022-09-09T13:26:00;22.02;68.57
65584;DHT22;62116;43.582;1.470;2022-09-09T13:28:26;22.06;67.44
65584;DHT22;62116;43.582;1.470;2022-09-09T13:30:57;22.09;67.71
65584;DHT22;62116;43.582;1.470;2022-09-09T13:33:33;22.10;67.07
65584;DHT22;62116;43.582;1.470;2022-09-09T13:35:59;22.18;66.94
65584;DHT22;62116;43.582;1.470;2022-09-09T13:38:29;22.23;66.82
65584;DHT22;62116;43.582;1.470;2022-09-09T13:41:07;22.21;66.51
65584;DHT22;62116;43.582;1.470;2022-09-09T13:43:43;22.29;67.28
65584;DHT22;62116;43.582;1.470;2022-09-09T13:48:56;22.37;66.72
65584;DHT22;62116;43.582;1.470;2022-09-09T13:51:38;22.44;67.03
65584;DHT22;62116;43.582;1.470;2022-09-09T13:54:05;22.47;65.91
65584;DHT22;62116;43.582;1.470;2022-09-09T13:56:35;22.47;66.32
65584;DHT22;62116;43.582;1.470;2022-09-09T13:59:01;22.51;66.52
65584;DHT22;62116;43.582;1.470;2022-09-09T14:01:27;22.53;66.60
65584;DHT22;62116;43.582;1.470;2022-09-09T14:03:53;22.55;66.99
65584;DHT22;62116;43.582;1.470;2022-09-09T14:06:19;22.57;65.37
65584;DHT22;62116;43.582;1.470;2022-09-09T14:08:47;22.63;65.53
65584;DHT22;62116;43.582;1.470;2022-09-09T14:11:14;22.57;65.03
65584;DHT22;62116;43.582;1.470;2022-09-09T14:13:39;22.57;64.99
65584;DHT22;62116;43.582;1.470;2022-09-09T14:16:05;22.57;65.02
65584;DHT22;62116;43.582;1.470;2022-09-09T14:18:31;22.58;65.68
65584;DHT22;62116;43.582;1.470;2022-09-09T14:20:57;22.55;66.15
65584;DHT22;62116;43.582;1.470;2022-09-09T14:23:24;22.55;65.17
65584;DHT22;62116;43.582;1.470;2022-09-09T14:25:50;22.55;62.66
65584;DHT22;62116;43.582;1.470;2022-09-09T14:28:16;22.54;64.31
65584;DHT22;62116;43.582;1.470;2022-09-09T14:30:42;22.63;63.89
65584;DHT22;62116;43.582;1.470;2022-09-09T14:33:12;22.69;63.96
65584;DHT22;62116;43.582;1.470;2022-09-09T14:35:38;22.72;63.55
65584;DHT22;62116;43.582;1.470;2022-09-09T14:38:04;22.78;62.26
65584;DHT22;62116;43.582;1.470;2022-09-09T14:40:30;22.79;62.53
65584;DHT22;62116;43.582;1.470;2022-09-09T14:42:56;22.79;62.12
65584;DHT22;62116;43.582;1.470;2022-09-09T14:45:23;22.81;61.98
65584;DHT22;62116;43.582;1.470;2022-09-09T14:47:50;22.81;61.13
65584;DHT22;62116;43.582;1.470;2022-09-09T14:50:16;22.81;60.87
65584;DHT22;62116;43.582;1.470;2022-09-09T14:52:41;22.85;61.60
65584;DHT22;62116;43.582;1.470;2022-09-09T14:55:07;22.91;61.37
65584;DHT22;62116;43.582;1.470;2022-09-09T14:57:32;22.91;59.99
65584;DHT22;62116;43.582;1.470;2022-09-09T15:00:00;22.92;59.99
65584;DHT22;62116;43.582;1.470;2022-09-09T15:02:25;22.94;60.43
65584;DHT22;62116;43.582;1.470;2022-09-09T15:04:50;22.99;60.56
65584;DHT22;62116;43.582;1.470;2022-09-09T15:07:17;23.04;60.30
65584;DHT22;62116;43.582;1.470;2022-09-09T15:09:44;23.02;60.26
65584;DHT22;62116;43.582;1.470;2022-09-09T15:12:12;23.04;60.47
65584;DHT22;62116;43.582;1.470;2022-09-09T15:14:38;23.07;60.03
65584;DHT22;62116;43.582;1.470;2022-09-09T15:17:03;23.08;60.14
65584;DHT22;62116;43.582;1.470;2022-09-09T15:19:29;23.12;60.38
65584;DHT22;62116;43.582;1.470;2022-09-09T15:21:54;23.15;60.30
65584;DHT22;62116;43.582;1.470;2022-09-09T15:24:20;23.18;59.84
65584;DHT22;62116;43.582;1.470;2022-09-09T15:26:45;23.18;59.30
65584;DHT22;62116;43.582;1.470;2022-09-09T15:29:10;23.18;58.45
65584;DHT22;62116;43.582;1.470;2022-09-09T15:31:36;23.18;58.90
65584;DHT22;62116;43.582;1.470;2022-09-09T15:34:04;23.19;58.43
65584;DHT22;62116;43.582;1.470;2022-09-09T15:36:37;23.16;58.84
65584;DHT22;62116;43.582;1.470;2022-09-09T15:39:05;23.16;59.05
65584;DHT22;62116;43.582;1.470;2022-09-09T15:41:31;23.19;58.88
65584;DHT22;62116;43.582;1.470;2022-09-09T15:43:57;23.18;59.53
65584;DHT22;62116;43.582;1.470;2022-09-09T15:46:44;23.19;58.66
65584;DHT22;62116;43.582;1.470;2022-09-09T15:49:13;23.18;59.79
65584;DHT22;62116;43.582;1.470;2022-09-09T15:51:43;23.20;60.27
65584;DHT22;62116;43.582;1.470;2022-09-09T15:54:11;23.20;60.00
65584;DHT22;62116;43.582;1.470;2022-09-09T15:56:37;23.23;59.63
65584;DHT22;62116;43.582;1.470;2022-09-09T15:59:02;23.25;58.95
65584;DHT22;62116;43.582;1.470;2022-09-09T16:01:28;23.28;58.76
65584;DHT22;62116;43.582;1.470;2022-09-09T16:03:54;23.26;57.98
65584;DHT22;62116;43.582;1.470;2022-09-09T16:06:21;23.28;58.19
65584;DHT22;62116;43.582;1.470;2022-09-09T16:08:49;23.28;59.48
65584;DHT22;62116;43.582;1.470;2022-09-09T16:11:23;23.30;59.56
65584;DHT22;62116;43.582;1.470;2022-09-09T16:13:51;23.33;59.21
65584;DHT22;62116;43.582;1.470;2022-09-09T16:16:19;23.30;58.64
65584;DHT22;62116;43.582;1.470;2022-09-09T16:18:48;23.32;58.41
65584;DHT22;62116;43.582;1.470;2022-09-09T16:21:17;23.32;58.47
65584;DHT22;62116;43.582;1.470;2022-09-09T16:23:43;23.35;57.73
65584;DHT22;62116;43.582;1.470;2022-09-09T16:26:14;23.33;57.77
65584;DHT22;62116;43.582;1.470;2022-09-09T16:28:40;23.37;57.53
65584;DHT22;62116;43.582;1.470;2022-09-09T16:31:10;23.38;57.83
65584;DHT22;62116;43.582;1.470;2022-09-09T16:33:36;23.41;58.16
65584;DHT22;62116;43.582;1.470;2022-09-09T16:36:10;23.43;58.26
65584;DHT22;62116;43.582;1.470;2022-09-09T16:38:37;23.42;57.55
65584;DHT22;62116;43.582;1.470;2022-09-09T16:41:04;23.48;57.83
65584;DHT22;62116;43.582;1.470;2022-09-09T16:43:31;23.45;57.11
65584;DHT22;62116;43.582;1.470;2022-09-09T16:45:57;23.49;57.13
65584;DHT22;62116;43.582;1.470;2022-09-09T16:48:22;23.52;57.41
65584;DHT22;62116;43.582;1.470;2022-09-09T16:50:48;23.52;57.18
65584;DHT22;62116;43.582;1.470;2022-09-09T16:53:14;23.53;57.56
65584;DHT22;62116;43.582;1.470;2022-09-09T16:55:41;23.58;57.68
65584;DHT22;62116;43.582;1.470;2022-09-09T16:58:12;23.58;57.84
65584;DHT22;62116;43.582;1.470;2022-09-09T17:00:38;23.58;57.34
65584;DHT22;62116;43.582;1.470;2022-09-09T17:03:03;23.62;57.07
65584;DHT22;62116;43.582;1.470;2022-09-09T17:05:29;23.59;55.90
65584;DHT22;62116;43.582;1.470;2022-09-09T17:07:55;23.56;54.99
65584;DHT22;62116;43.582;1.470;2022-09-09T17:10:23;23.58;54.89
65584;DHT22;62116;43.582;1.470;2022-09-09T17:12:49;23.60;54.76
65584;DHT22;62116;43.582;1.470;2022-09-09T17:15:14;23.59;53.39
65584;DHT22;62116;43.582;1.470;2022-09-09T17:17:40;23.56;54.52
65584;DHT22;62116;43.582;1.470;2022-09-09T17:20:08;23.58;54.71
65584;DHT22;62116;43.582;1.470;2022-09-09T17:22:34;23.56;54.92
65584;DHT22;62116;43.582;1.470;2022-09-09T17:25:00;23.55;53.85
65584;DHT22;62116;43.582;1.470;2022-09-09T17:27:25;23.50;54.51
65584;DHT22;62116;43.582;1.470;2022-09-09T17:29:51;23.49;54.20
65584;DHT22;62116;43.582;1.470;2022-09-09T17:32:16;23.49;54.20
65584;DHT22;62116;43.582;1.470;2022-09-09T17:34:42;23.49;54.85
65584;DHT22;62116;43.582;1.470;2022-09-09T17:37:07;23.43;54.77
65584;DHT22;62116;43.582;1.470;2022-09-09T17:39:33;23.45;54.98
65584;DHT22;62116;43.582;1.470;2022-09-09T17:41:58;23.39;54.86
65584;DHT22;62116;43.582;1.470;2022-09-09T17:44:24;23.38;54.22